Time,TemperatureF,DewpointF,PressureIn,WindDirection,WindDirectionDegrees,WindSpeedMPH,WindSpeedGustMPH,Humidity,HourlyPrecipIn,Conditions,Clouds,dailyrainin,SoftwareType,DateUTC
2013-10-26 00:05:00,40.3,34.0,30.22,WNW,294,0.0,0.0,78,0.00,,,0.00,Wunderground v.1.15,2013-10-26 04:05:00,
2013-10-26 00:10:00,40.2,33.9,30.22,WNW,294,0.0,0.0,78,0.00,,,0.00,Wunderground v.1.15,2013-10-26 04:10:00,
2013-10-26 00:15:00,40.1,33.8,30.22,WNW,283,0.0,0.0,78,0.00,,,0.00,Wunderground v.1.15,2013-10-26 04:15:00,
2013-10-26 00:20:00,40.1,34.1,30.22,West,266,0.0,1.0,79,0.00,,,0.00,Wunderground v.1.15,2013-10-26 04:20:00,
2013-10-26 00:25:00,40.2,34.2,30.22,West,276,0.0,1.0,79,0.00,,,0.00,Wunderground v.1.15,2013-10-26 04:25:00,
2013-10-26 00:30:00,40.2,34.2,30.22,WNW,292,0.0,1.0,79,0.00,,,0.00,Wunderground v.1.15,2013-10-26 04:30:00,
2013-10-26 00:40:00,40.1,34.1,30.22,West,280,1.0,1.0,79,0.00,,,0.00,Wunderground v.1.15,2013-10-26 04:40:00,
2013-10-26 00:45:00,40.1,34.4,30.22,WNW,302,1.0,3.0,80,0.00,,,0.00,Wunderground v.1.15,2013-10-26 04:45:00,
2013-10-26 00:50:00,40.0,34.3,30.22,West,278,1.0,2.0,80,0.00,,,0.00,Wunderground v.1.15,2013-10-26 04:50:00,
2013-10-26 00:55:00,40.0,34.3,30.22,WSW,243,1.0,2.0,80,0.00,,,0.00,Wunderground v.1.15,2013-10-26 04:55:00,
2013-10-26 01:00:00,40.0,34.3,30.22,West,273,1.0,1.0,80,0.00,,,0.00,Wunderground v.1.15,2013-10-26 05:00:00,
2013-10-26 01:05:00,39.8,34.1,30.22,NW,305,1.0,1.0,80,0.00,,,0.00,Wunderground v.1.15,2013-10-26 05:05:00,
2013-10-26 01:10:00,39.6,33.9,30.22,West,267,0.0,0.0,80,0.00,,,0.00,Wunderground v.1.15,2013-10-26 05:10:00,
2013-10-26 01:20:00,39.3,34.0,30.23,West,273,1.0,1.0,81,0.00,,,0.00,Wunderground v.1.15,2013-10-26 05:20:00,
2013-10-26 01:25:00,39.3,34.0,30.22,West,278,1.0,1.0,81,0.00,,,0.00,Wunderground v.1.15,2013-10-26 05:25:00,
2013-10-26 01:30:00,39.2,33.9,30.22,West,267,1.0,1.0,81,0.00,,,0.00,Wunderground v.1.15,2013-10-26 05:30:00,
2013-10-26 01:35:00,39.0,34.0,30.22,SW,218,1.0,1.0,82,0.00,,,0.00,Wunderground v.1.15,2013-10-26 05:35:00,
2013-10-26 01:40:00,38.9,33.9,30.22,West,277,0.0,1.0,82,0.00,,,0.00,Wunderground v.1.15,2013-10-26 05:40:00,
2013-10-26 01:45:00,38.8,33.8,30.22,West,267,1.0,1.0,82,0.00,,,0.00,Wunderground v.1.15,2013-10-26 05:45:00,
2013-10-26 01:50:00,38.6,33.6,30.22,SSW,198,1.0,1.0,82,0.00,,,0.00,Wunderground v.1.15,2013-10-26 05:50:00,
2013-10-26 02:00:00,38.2,33.5,30.21,WSW,249,1.0,1.0,83,0.00,,,0.00,Wunderground v.1.15,2013-10-26 06:00:00,
2013-10-26 02:05:00,38.1,33.7,30.21,WNW,288,1.0,1.0,84,0.00,,,0.00,Wunderground v.1.15,2013-10-26 06:05:00,
2013-10-26 02:10:00,38.1,33.7,30.21,WNW,283,1.0,2.0,84,0.00,,,0.00,Wunderground v.1.15,2013-10-26 06:10:00,
2013-10-26 02:15:00,38.2,33.8,30.21,NW,307,1.0,2.0,84,0.00,,,0.00,Wunderground v.1.15,2013-10-26 06:15:00,
2013-10-26 02:20:00,38.3,33.9,30.21,WSW,249,1.0,1.0,84,0.00,,,0.00,Wunderground v.1.15,2013-10-26 06:20:00,
2013-10-26 02:25:00,38.5,34.1,30.21,West,278,1.0,3.0,84,0.00,,,0.00,Wunderground v.1.15,2013-10-26 06:25:00,
2013-10-26 02:30:00,38.5,33.8,30.20,West,277,2.0,2.0,83,0.00,,,0.00,Wunderground v.1.15,2013-10-26 06:30:00,
2013-10-26 02:35:00,38.5,33.8,30.21,WSW,243,1.0,2.0,83,0.00,,,0.00,Wunderground v.1.15,2013-10-26 06:35:00,
2013-10-26 02:45:00,38.5,33.8,30.21,West,273,2.0,2.0,83,0.00,,,0.00,Wunderground v.1.15,2013-10-26 06:45:00,
2013-10-26 02:50:00,38.4,33.7,30.21,WNW,284,1.0,1.0,83,0.00,,,0.00,Wunderground v.1.15,2013-10-26 06:50:00,
2013-10-26 02:55:00,38.3,33.9,30.21,West,281,1.0,2.0,84,0.00,,,0.00,Wunderground v.1.15,2013-10-26 06:55:00,
2013-10-26 03:00:00,38.3,33.9,30.21,WNW,283,2.0,2.0,84,0.00,,,0.00,Wunderground v.1.15,2013-10-26 07:00:00,
2013-10-26 03:05:00,38.4,34.0,30.21,West,280,2.0,5.0,84,0.00,,,0.00,Wunderground v.1.15,2013-10-26 07:05:00,
2013-10-26 03:10:00,38.5,33.8,30.21,WNW,294,3.0,3.0,83,0.00,,,0.00,Wunderground v.1.15,2013-10-26 07:10:00,
2013-10-26 03:15:00,38.6,33.9,30.21,WNW,283,2.0,5.0,83,0.00,,,0.00,Wunderground v.1.15,2013-10-26 07:15:00,
2013-10-26 03:25:00,38.7,34.0,30.21,WNW,291,3.0,3.0,83,0.00,,,0.00,Wunderground v.1.15,2013-10-26 07:25:00,
2013-10-26 03:30:00,38.5,33.8,30.21,West,277,2.0,2.0,83,0.00,,,0.00,Wunderground v.1.15,2013-10-26 07:30:00,
2013-10-26 03:35:00,38.4,33.7,30.21,NW,326,2.0,3.0,83,0.00,,,0.00,Wunderground v.1.15,2013-10-26 07:35:00,
2013-10-26 03:40:00,38.4,34.0,30.21,West,281,2.0,2.0,84,0.00,,,0.00,Wunderground v.1.15,2013-10-26 07:40:00,
2013-10-26 03:45:00,38.5,33.8,30.21,West,278,3.0,4.0,83,0.00,,,0.00,Wunderground v.1.15,2013-10-26 07:45:00,
2013-10-26 03:50:00,38.5,33.8,30.21,WNW,302,3.0,3.0,83,0.00,,,0.00,Wunderground v.1.15,2013-10-26 07:50:00,
2013-10-26 03:55:00,38.4,33.7,30.21,WNW,285,3.0,4.0,83,0.00,,,0.00,Wunderground v.1.15,2013-10-26 07:55:00,
2013-10-26 04:05:00,38.5,33.5,30.20,WNW,290,3.0,6.0,82,0.00,,,0.00,Wunderground v.1.15,2013-10-26 08:05:00,
2013-10-26 04:10:00,38.5,33.5,30.20,West,273,3.0,5.0,82,0.00,,,0.00,Wunderground v.1.15,2013-10-26 08:10:00,
2013-10-26 04:15:00,38.3,33.3,30.20,WNW,294,2.0,5.0,82,0.00,,,0.00,Wunderground v.1.15,2013-10-26 08:15:00,
2013-10-26 04:20:00,38.1,33.1,30.20,West,280,2.0,2.0,82,0.00,,,0.00,Wunderground v.1.15,2013-10-26 08:20:00,
2013-10-26 04:25:00,38.0,33.0,30.20,WSW,257,2.0,2.0,82,0.00,,,0.00,Wunderground v.1.15,2013-10-26 08:25:00,
2013-10-26 04:30:00,37.8,32.8,30.20,West,276,2.0,2.0,82,0.00,,,0.00,Wunderground v.1.15,2013-10-26 08:30:00,
2013-10-26 04:35:00,37.6,32.6,30.20,West,274,1.0,2.0,82,0.00,,,0.00,Wunderground v.1.15,2013-10-26 08:35:00,
2013-10-26 04:45:00,37.2,32.5,30.21,WNW,288,2.0,2.0,83,0.00,,,0.00,Wunderground v.1.15,2013-10-26 08:45:00,
2013-10-26 04:50:00,37.3,32.9,30.21,West,277,2.0,2.0,84,0.00,,,0.00,Wunderground v.1.15,2013-10-26 08:50:00,
2013-10-26 04:55:00,37.1,32.7,30.20,WNW,288,2.0,2.0,84,0.00,,,0.00,Wunderground v.1.15,2013-10-26 08:55:00,
2013-10-26 05:00:00,37.1,32.7,30.20,West,280,2.0,2.0,84,0.00,,,0.00,Wunderground v.1.15,2013-10-26 09:00:00,
2013-10-26 05:05:00,37.3,32.9,30.20,West,278,2.0,2.0,84,0.00,,,0.00,Wunderground v.1.15,2013-10-26 09:05:00,
2013-10-26 05:10:00,37.4,32.7,30.20,WNW,285,1.0,4.0,83,0.00,,,0.00,Wunderground v.1.15,2013-10-26 09:10:00,
2013-10-26 05:15:00,37.5,32.8,30.20,WNW,296,2.0,4.0,83,0.00,,,0.00,Wunderground v.1.15,2013-10-26 09:15:00,
2013-10-26 05:25:00,37.2,32.2,30.20,West,275,2.0,2.0,82,0.00,,,0.00,Wunderground v.1.15,2013-10-26 09:25:00,
2013-10-26 05:30:00,36.9,32.2,30.20,WNW,283,1.0,1.0,83,0.00,,,0.00,Wunderground v.1.15,2013-10-26 09:30:00,
2013-10-26 05:35:00,36.7,32.0,30.20,WSW,238,1.0,1.0,83,0.00,,,0.00,Wunderground v.1.15,2013-10-26 09:35:00,
2013-10-26 05:40:00,36.4,31.7,30.20,West,280,0.0,0.0,83,0.00,,,0.00,Wunderground v.1.15,2013-10-26 09:40:00,
2013-10-26 05:45:00,36.1,31.4,30.20,West,280,0.0,0.0,83,0.00,,,0.00,Wunderground v.1.15,2013-10-26 09:45:00,
2013-10-26 05:50:00,35.8,31.4,30.20,WSW,238,0.0,0.0,84,0.00,,,0.00,Wunderground v.1.15,2013-10-26 09:50:00,
2013-10-26 05:55:00,35.5,31.1,30.20,West,263,0.0,0.0,84,0.00,,,0.00,Wunderground v.1.15,2013-10-26 09:55:00,
2013-10-26 06:05:00,35.3,31.2,30.20,West,273,0.0,1.0,85,0.00,,,0.00,Wunderground v.1.15,2013-10-26 10:05:00,
2013-10-26 06:10:00,35.3,31.5,30.20,WSW,245,0.0,1.0,86,0.00,,,0.00,Wunderground v.1.15,2013-10-26 10:10:00,
2013-10-26 06:15:00,35.3,31.5,30.20,West,269,0.0,1.0,86,0.00,,,0.00,Wunderground v.1.15,2013-10-26 10:15:00,
2013-10-26 06:20:00,35.3,31.5,30.20,SW,235,0.0,0.0,86,0.00,,,0.00,Wunderground v.1.15,2013-10-26 10:20:00,
2013-10-26 06:25:00,35.3,31.5,30.20,WNW,302,0.0,0.0,86,0.00,,,0.00,Wunderground v.1.15,2013-10-26 10:25:00,
2013-10-26 06:30:00,35.1,31.3,30.19,SW,233,0.0,1.0,86,0.00,,,0.00,Wunderground v.1.15,2013-10-26 10:30:00,
2013-10-26 06:35:00,35.0,31.2,30.20,SW,235,0.0,1.0,86,0.00,,,0.00,Wunderground v.1.15,2013-10-26 10:35:00,
2013-10-26 06:40:00,35.1,31.6,30.20,West,281,0.0,2.0,87,0.00,,,0.00,Wunderground v.1.15,2013-10-26 10:40:00,
2013-10-26 06:45:00,35.0,31.5,30.20,SSW,195,1.0,2.0,87,0.00,,,0.00,Wunderground v.1.15,2013-10-26 10:45:00,
2013-10-26 06:55:00,35.1,31.6,30.20,WNW,288,0.0,2.0,87,0.00,,,0.00,Wunderground v.1.15,2013-10-26 10:55:00,
2013-10-26 07:00:00,35.2,31.7,30.20,WNW,285,0.0,1.0,87,0.00,,,0.00,Wunderground v.1.15,2013-10-26 11:00:00,
2013-10-26 07:05:00,35.4,31.9,30.20,NNW,333,1.0,1.0,87,0.00,,,0.00,Wunderground v.1.15,2013-10-26 11:05:00,
2013-10-26 07:10:00,35.5,31.7,30.20,SW,221,1.0,1.0,86,0.00,,,0.00,Wunderground v.1.15,2013-10-26 11:10:00,
2013-10-26 07:15:00,35.4,31.6,30.20,SSE,156,0.0,1.0,86,0.00,,,0.00,Wunderground v.1.15,2013-10-26 11:15:00,
2013-10-26 07:20:00,35.4,31.6,30.20,WNW,288,1.0,1.0,86,0.00,,,0.00,Wunderground v.1.15,2013-10-26 11:20:00,
2013-10-26 07:25:00,35.4,31.6,30.20,NW,308,1.0,2.0,86,0.00,,,0.00,Wunderground v.1.15,2013-10-26 11:25:00,
2013-10-26 07:35:00,35.2,31.4,30.20,WSW,252,1.0,1.0,86,0.00,,,0.00,Wunderground v.1.15,2013-10-26 11:35:00,
2013-10-26 07:40:00,35.2,31.4,30.20,WSW,255,0.0,0.0,86,0.00,,,0.00,Wunderground v.1.15,2013-10-26 11:40:00,
2013-10-26 07:45:00,35.4,31.6,30.20,SSW,207,0.0,0.0,86,0.00,,,0.00,Wunderground v.1.15,2013-10-26 11:45:00,
2013-10-26 07:50:00,35.7,31.9,30.20,SW,228,1.0,1.0,86,0.00,,,0.00,Wunderground v.1.15,2013-10-26 11:50:00,
2013-10-26 07:55:00,36.1,32.0,30.20,SW,215,1.0,1.0,85,0.00,,,0.00,Wunderground v.1.15,2013-10-26 11:55:00,
2013-10-26 08:00:00,36.4,32.3,30.20,SSW,207,0.0,0.0,85,0.00,,,0.00,Wunderground v.1.15,2013-10-26 12:00:00,
2013-10-26 08:05:00,36.7,32.6,30.20,SSW,207,1.0,1.0,85,0.00,,,0.00,Wunderground v.1.15,2013-10-26 12:05:00,
2013-10-26 08:15:00,37.0,32.6,30.20,WNW,293,1.0,1.0,84,0.00,,,0.00,Wunderground v.1.15,2013-10-26 12:15:00,
2013-10-26 08:20:00,37.2,32.5,30.20,WNW,285,1.0,2.0,83,0.00,,,0.00,Wunderground v.1.15,2013-10-26 12:20:00,
2013-10-26 08:25:00,37.3,32.6,30.20,West,278,1.0,2.0,83,0.00,,,0.00,Wunderground v.1.15,2013-10-26 12:25:00,
2013-10-26 08:30:00,37.7,33.0,30.20,WSW,246,1.0,1.0,83,0.00,,,0.00,Wunderground v.1.15,2013-10-26 12:30:00,
2013-10-26 08:35:00,38.1,33.4,30.20,WSW,238,1.0,1.0,83,0.00,,,0.00,Wunderground v.1.15,2013-10-26 12:35:00,
2013-10-26 08:40:00,38.7,34.0,30.21,WSW,252,0.0,2.0,83,0.00,,,0.00,Wunderground v.1.15,2013-10-26 12:40:00,
2013-10-26 08:45:00,39.1,33.8,30.21,WSW,246,0.0,2.0,81,0.00,,,0.00,Wunderground v.1.15,2013-10-26 12:45:00,
2013-10-26 08:55:00,39.7,33.7,30.20,NE,43,1.0,1.0,79,0.00,,,0.00,Wunderground v.1.15,2013-10-26 12:55:00,
2013-10-26 09:05:00,40.6,34.3,30.20,SSW,212,1.0,1.0,78,0.00,,,0.00,Wunderground v.1.15,2013-10-26 13:05:00,
2013-10-26 09:10:00,41.3,35.0,30.20,WNW,297,1.0,1.0,78,0.00,,,0.00,Wunderground v.1.15,2013-10-26 13:10:00,
2013-10-26 09:15:00,42.0,35.0,30.20,SW,215,1.0,5.0,76,0.00,,,0.00,Wunderground v.1.15,2013-10-26 13:15:00,
2013-10-26 09:20:00,42.4,35.0,30.20,NW,319,1.0,1.0,75,0.00,,,0.00,Wunderground v.1.15,2013-10-26 13:20:00,
2013-10-26 09:25:00,43.1,35.0,30.20,SW,235,1.0,1.0,73,0.00,,,0.00,Wunderground v.1.15,2013-10-26 13:25:00,
2013-10-26 09:30:00,43.6,35.2,30.20,WNW,300,1.0,2.0,72,0.00,,,0.00,Wunderground v.1.15,2013-10-26 13:30:00,
2013-10-26 09:35:00,44.1,35.6,30.19,WNW,297,1.0,2.0,72,0.00,,,0.00,Wunderground v.1.15,2013-10-26 13:35:00,
2013-10-26 09:45:00,44.3,35.1,30.19,WSW,255,2.0,4.0,70,0.00,,,0.00,Wunderground v.1.15,2013-10-26 13:45:00,
2013-10-26 09:50:00,44.8,36.3,30.19,NW,305,2.0,2.0,72,0.00,,,0.00,Wunderground v.1.15,2013-10-26 13:50:00,
2013-10-26 09:55:00,45.3,36.1,30.19,WNW,285,2.0,3.0,70,0.00,,,0.00,Wunderground v.1.15,2013-10-26 13:55:00,
2013-10-26 10:00:00,45.8,36.2,30.19,WNW,299,2.0,2.0,69,0.00,,,0.00,Wunderground v.1.15,2013-10-26 14:00:00,
2013-10-26 10:05:00,46.2,35.8,30.19,NW,325,2.0,2.0,67,0.00,,,0.00,Wunderground v.1.15,2013-10-26 14:05:00,
2013-10-26 10:10:00,46.6,35.5,30.19,WNW,300,2.0,3.0,65,0.00,,,0.00,Wunderground v.1.15,2013-10-26 14:10:00,
2013-10-26 10:15:00,47.1,35.5,30.18,WNW,294,2.0,4.0,64,0.00,,,0.00,Wunderground v.1.15,2013-10-26 14:15:00,
2013-10-26 10:25:00,48.1,35.7,30.18,WSW,249,2.0,2.0,62,0.00,,,0.00,Wunderground v.1.15,2013-10-26 14:25:00,
2013-10-26 10:30:00,48.8,35.5,30.18,SW,215,2.0,3.0,60,0.00,,,0.00,Wunderground v.1.15,2013-10-26 14:30:00,
2013-10-26 10:35:00,49.3,35.6,30.18,SW,226,2.0,3.0,59,0.00,,,0.00,Wunderground v.1.15,2013-10-26 14:35:00,
2013-10-26 10:40:00,49.6,35.4,30.18,NW,307,2.0,2.0,58,0.00,,,0.00,Wunderground v.1.15,2013-10-26 14:40:00,
2013-10-26 10:45:00,49.9,35.7,30.18,West,262,2.0,2.0,58,0.00,,,0.00,Wunderground v.1.15,2013-10-26 14:45:00,
2013-10-26 10:50:00,50.4,35.3,30.17,SSW,207,2.0,4.0,56,0.00,,,0.00,Wunderground v.1.15,2013-10-26 14:50:00,
2013-10-26 10:55:00,50.4,34.8,30.17,SW,215,3.0,9.0,55,0.00,,,0.00,Wunderground v.1.15,2013-10-26 14:55:00,
2013-10-26 11:05:00,50.5,34.9,30.17,SW,235,4.0,6.0,55,0.00,,,0.00,Wunderground v.1.15,2013-10-26 15:05:00,
2013-10-26 11:10:00,51.0,34.9,30.16,WNW,283,3.0,3.0,54,0.00,,,0.00,Wunderground v.1.15,2013-10-26 15:10:00,
2013-10-26 11:15:00,51.2,34.6,30.16,SW,221,2.0,3.0,53,0.00,,,0.00,Wunderground v.1.15,2013-10-26 15:15:00,
2013-10-26 11:20:00,51.4,34.8,30.16,SSW,200,3.0,6.0,53,0.00,,,0.00,Wunderground v.1.15,2013-10-26 15:20:00,
2013-10-26 11:25:00,51.4,35.3,30.16,SW,231,4.0,6.0,54,0.00,,,0.00,Wunderground v.1.15,2013-10-26 15:25:00,
2013-10-26 11:30:00,51.9,34.8,30.15,South,179,3.0,5.0,52,0.00,,,0.00,Wunderground v.1.15,2013-10-26 15:30:00,
2013-10-26 11:35:00,51.8,33.2,30.15,South,174,4.0,5.0,49,0.00,,,0.00,Wunderground v.1.15,2013-10-26 15:35:00,
2013-10-26 11:45:00,52.0,32.9,30.15,SW,218,3.0,4.0,48,0.00,,,0.00,Wunderground v.1.15,2013-10-26 15:45:00,
2013-10-26 11:50:00,52.1,32.5,30.14,South,169,4.0,4.0,47,0.00,,,0.00,Wunderground v.1.15,2013-10-26 15:50:00,
2013-10-26 11:55:00,52.3,32.6,30.14,WNW,294,5.0,5.0,47,0.00,,,0.00,Wunderground v.1.15,2013-10-26 15:55:00,
2013-10-26 12:00:00,52.5,33.4,30.14,SSE,148,5.0,5.0,48,0.00,,,0.00,Wunderground v.1.15,2013-10-26 16:00:00,
2013-10-26 12:10:00,52.8,32.6,30.14,SSW,195,4.0,4.0,46,0.00,,,0.00,Wunderground v.1.15,2013-10-26 16:10:00,
2013-10-26 12:15:00,52.8,33.1,30.13,WSW,249,5.0,9.0,47,0.00,,,0.00,Wunderground v.1.15,2013-10-26 16:15:00,
2013-10-26 12:25:00,53.5,33.7,30.12,SSW,213,5.0,5.0,47,0.00,,,0.00,Wunderground v.1.15,2013-10-26 16:25:00,
2013-10-26 12:30:00,53.7,33.4,30.12,West,263,4.0,4.0,46,0.00,,,0.00,Wunderground v.1.15,2013-10-26 16:30:00,
2013-10-26 12:35:00,53.7,32.3,30.12,West,274,5.0,5.0,44,0.00,,,0.00,Wunderground v.1.15,2013-10-26 16:35:00,
2013-10-26 12:40:00,53.9,34.6,30.11,SW,233,4.0,4.0,48,0.00,,,0.00,Wunderground v.1.15,2013-10-26 16:40:00,
2013-10-26 12:45:00,54.1,34.3,30.11,SSW,210,4.0,7.0,47,0.00,,,0.00,Wunderground v.1.15,2013-10-26 16:45:00,
2013-10-26 12:50:00,54.3,34.5,30.10,West,259,5.0,8.0,47,0.00,,,0.00,Wunderground v.1.15,2013-10-26 16:50:00,
2013-10-26 12:55:00,54.6,35.3,30.10,West,266,4.0,8.0,48,0.00,,,0.00,Wunderground v.1.15,2013-10-26 16:55:00,
2013-10-26 13:00:00,54.5,34.1,30.10,SSW,210,5.0,5.0,46,0.00,,,0.00,Wunderground v.1.15,2013-10-26 17:00:00,
2013-10-26 13:10:00,55.0,35.1,30.09,West,277,4.0,4.0,47,0.00,,,0.00,Wunderground v.1.15,2013-10-26 17:10:00,
2013-10-26 13:15:00,54.8,34.9,30.09,WSW,257,5.0,5.0,47,0.00,,,0.00,Wunderground v.1.15,2013-10-26 17:15:00,
2013-10-26 13:20:00,54.8,34.4,30.09,SSE,167,6.0,6.0,46,0.00,,,0.00,Wunderground v.1.15,2013-10-26 17:20:00,
2013-10-26 13:25:00,55.0,34.0,30.09,WNW,302,5.0,7.0,45,0.00,,,0.00,Wunderground v.1.15,2013-10-26 17:25:00,
2013-10-26 13:30:00,54.7,33.2,30.08,NW,305,5.0,8.0,44,0.00,,,0.00,Wunderground v.1.15,2013-10-26 17:30:00,
2013-10-26 13:35:00,54.7,34.3,30.08,West,267,5.0,8.0,46,0.00,,,0.00,Wunderground v.1.15,2013-10-26 17:35:00,
2013-10-26 13:40:00,55.1,34.7,30.08,SW,234,4.0,7.0,46,0.00,,,0.00,Wunderground v.1.15,2013-10-26 17:40:00,
2013-10-26 13:50:00,55.5,33.9,30.07,SSW,208,4.0,13.0,44,0.00,,,0.00,Wunderground v.1.15,2013-10-26 17:50:00,
2013-10-26 13:55:00,55.5,35.0,30.07,SW,233,5.0,13.0,46,0.00,,,0.00,Wunderground v.1.15,2013-10-26 17:55:00,
2013-10-26 14:00:00,55.8,34.8,30.06,SSW,207,5.0,8.0,45,0.00,,,0.00,Wunderground v.1.15,2013-10-26 18:00:00,
2013-10-26 14:05:00,55.7,33.5,30.06,West,274,5.0,8.0,43,0.00,,,0.00,Wunderground v.1.15,2013-10-26 18:05:00,
2013-10-26 14:10:00,55.7,32.9,30.06,South,170,6.0,7.0,42,0.00,,,0.00,Wunderground v.1.15,2013-10-26 18:10:00,
2013-10-26 14:15:00,55.8,32.4,30.05,SE,139,5.0,7.0,41,0.00,,,0.00,Wunderground v.1.15,2013-10-26 18:15:00,
2013-10-26 14:20:00,56.1,33.3,30.05,South,187,5.0,5.0,42,0.00,,,0.00,Wunderground v.1.15,2013-10-26 18:20:00,
2013-10-26 14:30:00,56.0,32.6,30.05,WSW,249,5.0,6.0,41,0.00,,,0.00,Wunderground v.1.15,2013-10-26 18:30:00,
2013-10-26 14:35:00,56.1,32.7,30.04,South,177,6.0,6.0,41,0.00,,,0.00,Wunderground v.1.15,2013-10-26 18:35:00,
2013-10-26 14:45:00,56.3,33.5,30.04,SSW,213,5.0,13.0,42,0.00,,,0.00,Wunderground v.1.15,2013-10-26 18:45:00,
2013-10-26 14:50:00,56.3,32.9,30.04,SSE,150,4.0,4.0,41,0.00,,,0.00,Wunderground v.1.15,2013-10-26 18:50:00,
2013-10-26 14:55:00,56.5,34.3,30.03,SSW,195,4.0,4.0,43,0.00,,,0.00,Wunderground v.1.15,2013-10-26 18:55:00,
2013-10-26 15:00:00,56.4,33.0,30.03,South,174,4.0,4.0,41,0.00,,,0.00,Wunderground v.1.15,2013-10-26 19:00:00,
2013-10-26 15:05:00,56.4,34.2,30.03,SW,233,5.0,5.0,43,0.00,,,0.00,Wunderground v.1.15,2013-10-26 19:05:00,
2013-10-26 15:15:00,56.5,34.3,30.03,SW,229,5.0,10.0,43,0.00,,,0.00,Wunderground v.1.15,2013-10-26 19:15:00,
2013-10-26 15:20:00,56.5,34.3,30.02,West,281,6.0,6.0,43,0.00,,,0.00,Wunderground v.1.15,2013-10-26 19:20:00,
2013-10-26 15:25:00,56.5,34.3,30.02,WSW,238,5.0,8.0,43,0.00,,,0.00,Wunderground v.1.15,2013-10-26 19:25:00,
2013-10-26 15:30:00,56.3,34.1,30.02,NW,319,6.0,6.0,43,0.00,,,0.00,Wunderground v.1.15,2013-10-26 19:30:00,
2013-10-26 15:35:00,56.1,35.0,30.02,SE,138,6.0,6.0,45,0.00,,,0.00,Wunderground v.1.15,2013-10-26 19:35:00,
2013-10-26 15:40:00,55.9,34.8,30.02,SSW,199,6.0,6.0,45,0.00,,,0.00,Wunderground v.1.15,2013-10-26 19:40:00,
2013-10-26 15:45:00,55.9,34.8,30.02,SW,218,6.0,6.0,45,0.00,,,0.00,Wunderground v.1.15,2013-10-26 19:45:00,
2013-10-26 15:50:00,55.9,35.4,30.02,NW,311,5.0,5.0,46,0.00,,,0.00,Wunderground v.1.15,2013-10-26 19:50:00,
2013-10-26 16:00:00,55.8,35.3,30.01,WSW,238,5.0,5.0,46,0.00,,,0.00,Wunderground v.1.15,2013-10-26 20:00:00,
2013-10-26 16:05:00,55.8,36.9,30.01,SW,231,6.0,6.0,49,0.00,,,0.00,Wunderground v.1.15,2013-10-26 20:05:00,
2013-10-26 16:10:00,55.9,36.5,30.01,SSW,212,5.0,6.0,48,0.00,,,0.00,Wunderground v.1.15,2013-10-26 20:10:00,
2013-10-26 16:15:00,56.1,37.2,30.00,SW,227,4.0,6.0,49,0.00,,,0.00,Wunderground v.1.15,2013-10-26 20:15:00,
2013-10-26 16:20:00,56.0,36.6,30.00,West,276,4.0,7.0,48,0.00,,,0.00,Wunderground v.1.15,2013-10-26 20:20:00,
2013-10-26 16:25:00,55.9,36.5,30.00,SW,226,4.0,7.0,48,0.00,,,0.00,Wunderground v.1.15,2013-10-26 20:25:00,
2013-10-26 16:30:00,55.8,36.9,29.99,SW,216,4.0,4.0,49,0.00,,,0.00,Wunderground v.1.15,2013-10-26 20:30:00,
2013-10-26 16:40:00,55.2,36.9,29.99,SW,235,4.0,4.0,50,0.00,,,0.00,Wunderground v.1.15,2013-10-26 20:40:00,
2013-10-26 16:45:00,55.0,37.7,29.99,West,276,3.0,6.0,52,0.00,,,0.00,Wunderground v.1.15,2013-10-26 20:45:00,
2013-10-26 16:50:00,54.9,37.1,29.98,SW,228,4.0,6.0,51,0.00,,,0.00,Wunderground v.1.15,2013-10-26 20:50:00,
2013-10-26 16:55:00,54.9,37.6,29.98,SSW,207,4.0,6.0,52,0.00,,,0.00,Wunderground v.1.15,2013-10-26 20:55:00,
2013-10-26 17:00:00,54.8,37.5,29.98,WSW,257,4.0,7.0,52,0.00,,,0.00,Wunderground v.1.15,2013-10-26 21:00:00,
2013-10-26 17:05:00,54.7,37.4,29.98,NW,325,4.0,7.0,52,0.00,,,0.00,Wunderground v.1.15,2013-10-26 21:05:00,
2013-10-26 17:15:00,54.7,36.9,29.98,ESE,115,3.0,6.0,51,0.00,,,0.00,Wunderground v.1.15,2013-10-26 21:15:00,
2013-10-26 17:25:00,54.7,36.9,29.97,SSW,201,4.0,4.0,51,0.00,,,0.00,Wunderground v.1.15,2013-10-26 21:25:00,
2013-10-26 17:30:00,54.6,36.8,29.97,West,277,3.0,4.0,51,0.00,,,0.00,Wunderground v.1.15,2013-10-26 21:30:00,
2013-10-26 17:35:00,54.5,36.7,29.97,WSW,254,3.0,3.0,51,0.00,,,0.00,Wunderground v.1.15,2013-10-26 21:35:00,
2013-10-26 17:40:00,54.4,36.1,29.97,WSW,240,3.0,4.0,50,0.00,,,0.00,Wunderground v.1.15,2013-10-26 21:40:00,
2013-10-26 17:45:00,54.2,35.9,29.96,WSW,238,3.0,7.0,50,0.00,,,0.00,Wunderground v.1.15,2013-10-26 21:45:00,
2013-10-26 17:50:00,54.1,36.4,29.96,NW,314,3.0,7.0,51,0.00,,,0.00,Wunderground v.1.15,2013-10-26 21:50:00,
2013-10-26 17:55:00,53.9,36.7,29.96,SW,215,3.0,3.0,52,0.00,,,0.00,Wunderground v.1.15,2013-10-26 21:55:00,
2013-10-26 18:05:00,53.3,38.4,29.96,SSE,150,2.0,3.0,57,0.00,,,0.00,Wunderground v.1.15,2013-10-26 22:05:00,
2013-10-26 18:10:00,53.0,39.5,29.95,SSW,197,2.0,2.0,60,0.00,,,0.00,Wunderground v.1.15,2013-10-26 22:10:00,
2013-10-26 18:15:00,52.7,40.5,29.95,SW,219,2.0,2.0,63,0.00,,,0.00,Wunderground v.1.15,2013-10-26 22:15:00,
2013-10-26 18:20:00,52.5,40.7,29.95,SSE,150,2.0,2.0,64,0.00,,,0.00,Wunderground v.1.15,2013-10-26 22:20:00,
2013-10-26 18:25:00,52.4,41.0,29.95,South,191,2.0,2.0,65,0.00,,,0.00,Wunderground v.1.15,2013-10-26 22:25:00,
2013-10-26 18:30:00,52.2,41.2,29.95,SW,229,2.0,2.0,66,0.00,,,0.00,Wunderground v.1.15,2013-10-26 22:30:00,
2013-10-26 18:35:00,52.0,41.0,29.95,WSW,243,1.0,3.0,66,0.00,,,0.00,Wunderground v.1.15,2013-10-26 22:35:00,
2013-10-26 18:45:00,51.8,41.2,29.95,SW,232,2.0,3.0,67,0.00,,,0.00,Wunderground v.1.15,2013-10-26 22:45:00,
2013-10-26 18:50:00,51.7,41.5,29.95,SSW,207,2.0,2.0,68,0.00,,,0.00,Wunderground v.1.15,2013-10-26 22:50:00,
2013-10-26 18:55:00,51.5,41.3,29.95,SW,232,1.0,2.0,68,0.00,,,0.00,Wunderground v.1.15,2013-10-26 22:55:00,
2013-10-26 19:00:00,51.3,41.5,29.94,SSE,153,1.0,2.0,69,0.00,,,0.00,Wunderground v.1.15,2013-10-26 23:00:00,
2013-10-26 19:05:00,51.2,41.4,29.95,SSW,200,2.0,2.0,69,0.00,,,0.00,Wunderground v.1.15,2013-10-26 23:05:00,
2013-10-26 19:10:00,51.2,41.4,29.95,SW,215,2.0,2.0,69,0.00,,,0.00,Wunderground v.1.15,2013-10-26 23:10:00,
2013-10-26 19:15:00,51.1,41.3,29.94,ESE,120,2.0,2.0,69,0.00,,,0.00,Wunderground v.1.15,2013-10-26 23:15:00,
2013-10-26 19:20:00,50.9,40.7,29.93,South,169,2.0,2.0,68,0.00,,,0.00,Wunderground v.1.15,2013-10-26 23:20:00,
2013-10-26 19:30:00,50.7,39.7,29.93,West,276,3.0,5.0,66,0.00,,,0.00,Wunderground v.1.15,2013-10-26 23:30:00,
2013-10-26 19:35:00,50.9,39.9,29.93,SE,139,3.0,5.0,66,0.00,,,0.00,Wunderground v.1.15,2013-10-26 23:35:00,
2013-10-26 19:40:00,50.9,39.5,29.94,SSW,195,3.0,3.0,65,0.00,,,0.00,Wunderground v.1.15,2013-10-26 23:40:00,
2013-10-26 19:45:00,50.9,39.5,29.94,SW,233,2.0,3.0,65,0.00,,,0.00,Wunderground v.1.15,2013-10-26 23:45:00,
2013-10-26 19:50:00,51.0,39.2,29.94,NNW,330,3.0,3.0,64,0.00,,,0.00,Wunderground v.1.15,2013-10-26 23:50:00,
2013-10-26 19:55:00,50.9,38.7,29.94,WNW,291,3.0,3.0,63,0.00,,,0.00,Wunderground v.1.15,2013-10-26 23:55:00,
2013-10-26 20:00:00,50.9,38.3,29.94,NNW,333,2.0,2.0,62,0.00,,,0.00,Wunderground v.1.15,2013-10-27 00:00:00,
2013-10-26 20:10:00,50.4,38.3,29.95,SSE,153,2.0,2.0,63,0.00,,,0.00,Wunderground v.1.15,2013-10-27 00:10:00,
2013-10-26 20:15:00,50.2,38.1,29.95,South,188,1.0,2.0,63,0.00,,,0.00,Wunderground v.1.15,2013-10-27 00:15:00,
2013-10-26 20:20:00,50.1,38.0,29.94,SW,222,2.0,3.0,63,0.00,,,0.00,Wunderground v.1.15,2013-10-27 00:20:00,
2013-10-26 20:25:00,50.2,38.1,29.94,WSW,249,3.0,3.0,63,0.00,,,0.00,Wunderground v.1.15,2013-10-27 00:25:00,
2013-10-26 20:30:00,50.1,38.0,29.94,SSE,158,3.0,3.0,63,0.00,,,0.00,Wunderground v.1.15,2013-10-27 00:30:00,
2013-10-26 20:35:00,50.0,37.9,29.94,WNW,293,3.0,3.0,63,0.00,,,0.00,Wunderground v.1.15,2013-10-27 00:35:00,
2013-10-26 20:40:00,49.9,38.2,29.94,West,264,3.0,3.0,64,0.00,,,0.00,Wunderground v.1.15,2013-10-27 00:40:00,
2013-10-26 20:45:00,49.9,38.2,29.94,WSW,243,3.0,3.0,64,0.00,,,0.00,Wunderground v.1.15,2013-10-27 00:45:00,
2013-10-26 20:55:00,49.7,37.6,29.94,SW,221,3.0,5.0,63,0.00,,,0.00,Wunderground v.1.15,2013-10-27 00:55:00,
2013-10-26 21:00:00,49.6,37.5,29.94,SW,231,3.0,3.0,63,0.00,,,0.00,Wunderground v.1.15,2013-10-27 01:00:00,
2013-10-26 21:05:00,49.4,37.7,29.94,SSE,149,2.0,3.0,64,0.00,,,0.00,Wunderground v.1.15,2013-10-27 01:05:00,
2013-10-26 21:10:00,49.3,37.2,29.94,SSW,200,2.0,2.0,63,0.00,,,0.00,Wunderground v.1.15,2013-10-27 01:10:00,
2013-10-26 21:15:00,49.1,37.4,29.94,South,190,2.0,2.0,64,0.00,,,0.00,Wunderground v.1.15,2013-10-27 01:15:00,
2013-10-26 21:20:00,48.9,37.6,29.94,West,259,2.0,2.0,65,0.00,,,0.00,Wunderground v.1.15,2013-10-27 01:20:00,
2013-10-26 21:25:00,48.7,37.5,29.94,WSW,243,2.0,2.0,65,0.00,,,0.00,Wunderground v.1.15,2013-10-27 01:25:00,
2013-10-26 21:35:00,48.7,37.8,29.94,SW,228,2.0,3.0,66,0.00,,,0.00,Wunderground v.1.15,2013-10-27 01:35:00,
2013-10-26 21:40:00,48.6,37.7,29.94,WSW,249,1.0,1.0,66,0.00,,,0.00,Wunderground v.1.15,2013-10-27 01:40:00,
2013-10-26 21:45:00,48.4,37.9,29.94,WNW,288,1.0,1.0,67,0.00,,,0.00,Wunderground v.1.15,2013-10-27 01:45:00,
2013-10-26 21:50:00,48.3,37.5,29.93,SSE,158,1.0,1.0,66,0.00,,,0.00,Wunderground v.1.15,2013-10-27 01:50:00,
2013-10-26 21:55:00,48.3,37.5,29.93,SW,218,1.0,2.0,66,0.00,,,0.00,Wunderground v.1.15,2013-10-27 01:55:00,
2013-10-26 22:00:00,48.4,37.6,29.93,ESE,105,2.0,2.0,66,0.00,,,0.00,Wunderground v.1.15,2013-10-27 02:00:00,
2013-10-26 22:05:00,48.4,37.9,29.93,SW,231,2.0,2.0,67,0.00,,,0.00,Wunderground v.1.15,2013-10-27 02:05:00,
2013-10-26 22:10:00,48.4,37.6,29.93,SSW,204,2.0,2.0,66,0.00,,,0.00,Wunderground v.1.15,2013-10-27 02:10:00,
2013-10-26 22:20:00,48.6,37.7,29.93,WSW,242,2.0,2.0,66,0.00,,,0.00,Wunderground v.1.15,2013-10-27 02:20:00,
2013-10-26 22:25:00,48.6,37.4,29.93,SW,231,2.0,2.0,65,0.00,,,0.00,Wunderground v.1.15,2013-10-27 02:25:00,
2013-10-26 22:30:00,48.7,37.8,29.93,South,169,2.0,2.0,66,0.00,,,0.00,Wunderground v.1.15,2013-10-27 02:30:00,
2013-10-26 22:35:00,48.7,37.8,29.93,SW,228,2.0,2.0,66,0.00,,,0.00,Wunderground v.1.15,2013-10-27 02:35:00,
2013-10-26 22:40:00,48.8,37.9,29.92,SW,235,2.0,4.0,66,0.00,,,0.00,Wunderground v.1.15,2013-10-27 02:40:00,
2013-10-26 22:45:00,48.8,37.9,29.92,SW,215,2.0,4.0,66,0.00,,,0.00,Wunderground v.1.15,2013-10-27 02:45:00,
2013-10-26 22:50:00,48.8,37.9,29.92,SW,221,2.0,2.0,66,0.00,,,0.00,Wunderground v.1.15,2013-10-27 02:50:00,
2013-10-26 22:55:00,48.8,37.6,29.92,NNW,329,2.0,3.0,65,0.00,,,0.00,Wunderground v.1.15,2013-10-27 02:55:00,
2013-10-26 23:05:00,48.8,37.6,29.92,NW,314,2.0,2.0,65,0.00,,,0.00,Wunderground v.1.15,2013-10-27 03:05:00,
2013-10-26 23:10:00,48.7,37.1,29.92,SE,131,2.0,2.0,64,0.00,,,0.00,Wunderground v.1.15,2013-10-27 03:10:00,
2013-10-26 23:15:00,48.8,37.2,29.92,WSW,246,2.0,2.0,64,0.00,,,0.00,Wunderground v.1.15,2013-10-27 03:15:00,
2013-10-26 23:20:00,48.8,37.2,29.92,West,259,2.0,2.0,64,0.00,,,0.00,Wunderground v.1.15,2013-10-27 03:20:00,
2013-10-26 23:30:00,49.1,37.4,29.91,WSW,240,2.0,7.0,64,0.00,,,0.00,Wunderground v.1.15,2013-10-27 03:30:00,
2013-10-26 23:35:00,49.2,37.1,29.91,WSW,243,2.0,7.0,63,0.00,,,0.00,Wunderground v.1.15,2013-10-27 03:35:00,
2013-10-26 23:40:00,49.2,36.7,29.91,SSW,198,2.0,2.0,62,0.00,,,0.00,Wunderground v.1.15,2013-10-27 03:40:00,
2013-10-26 23:45:00,49.2,36.7,29.91,SW,235,2.0,2.0,62,0.00,,,0.00,Wunderground v.1.15,2013-10-27 03:45:00,
2013-10-26 23:55:00,49.2,36.7,29.90,West,263,2.0,2.0,62,0.00,,,0.00,Wunderground v.1.15,2013-10-27 03:55:00,